createdAt,value
2022-08-28T00:00:12.843Z,3.87
2022-08-28T00:02:40.933Z,3.83
2022-08-28T00:05:09.739Z,3.70
2022-08-28T00:07:37.706Z,5.33
2022-08-28T00:10:08.883Z,4.93
2022-08-28T00:12:37.850Z,4.27
2022-08-28T00:15:10.359Z,3.87
2022-08-28T00:17:40.996Z,4.63
2022-08-28T00:20:11.978Z,4.13
2022-08-28T00:22:40.218Z,3.90
2022-08-28T00:25:10.067Z,3.97
2022-08-28T00:27:53.324Z,3.90
2022-08-28T00:30:27.104Z,3.43
2022-08-28T00:32:58.330Z,6.63
2022-08-28T00:35:25.662Z,3.53
2022-08-28T00:37:54.902Z,4.50
2022-08-28T00:40:28.505Z,4.13
2022-08-28T00:42:59.027Z,5.50
2022-08-28T00:45:26.854Z,4.93
2022-08-28T00:47:54.336Z,4.10
2022-08-28T00:50:25.546Z,2.93
2022-08-28T00:52:57.771Z,3.77
2022-08-28T00:55:27.382Z,3.83
2022-08-28T00:57:59.020Z,3.50
2022-08-28T01:00:33.920Z,4.80
2022-08-28T01:03:02.191Z,4.50
2022-08-28T01:05:30.218Z,3.40
2022-08-28T01:08:01.606Z,3.47
2022-08-28T01:10:32.707Z,5.50
2022-08-28T01:13:00.997Z,7.57
2022-08-28T01:15:32.713Z,3.93
2022-08-28T01:18:08.225Z,3.37
2022-08-28T01:20:39.855Z,3.80
2022-08-28T01:23:34.277Z,6.93
2022-08-28T01:26:01.548Z,3.63
2022-08-28T01:28:33.976Z,3.63
2022-08-28T01:31:01.757Z,5.13
2022-08-28T01:33:29.031Z,5.83
2022-08-28T01:35:56.407Z,4.10
2022-08-28T01:38:24.877Z,4.10
2022-08-28T01:40:54.960Z,8.87
2022-08-28T01:43:26.351Z,5.90
2022-08-28T01:46:02.134Z,7.27
2022-08-28T01:48:31.743Z,3.87
2022-08-28T01:50:59.167Z,4.13
2022-08-28T01:53:32.654Z,4.00
2022-08-28T01:56:04.486Z,3.50
2022-08-28T01:58:37.533Z,5.67
2022-08-28T02:01:13.622Z,4.60
2022-08-28T02:03:43.360Z,4.63
2022-08-28T02:06:13.153Z,4.90
2022-08-28T02:08:40.636Z,7.97
2022-08-28T02:11:09.149Z,4.67
2022-08-28T02:13:38.136Z,5.47
2022-08-28T02:16:09.199Z,5.00
2022-08-28T02:18:37.942Z,5.27
2022-08-28T02:21:07.507Z,4.73
2022-08-28T02:23:36.196Z,5.47
2022-08-28T02:26:03.798Z,5.73
2022-08-28T02:28:31.179Z,5.47
2022-08-28T02:30:59.658Z,7.73
2022-08-28T02:33:27.006Z,5.07
2022-08-28T02:35:55.177Z,5.27
2022-08-28T02:38:22.740Z,5.67
2022-08-28T02:40:50.136Z,4.80
2022-08-28T02:43:17.525Z,4.70
2022-08-28T02:45:44.852Z,4.97
2022-08-28T02:48:16.994Z,5.20
2022-08-28T02:50:46.253Z,5.43
2022-08-28T02:53:14.332Z,5.03
2022-08-28T02:55:41.664Z,5.03
2022-08-28T02:58:09.728Z,5.97
2022-08-28T03:00:37.211Z,5.00
2022-08-28T03:03:05.437Z,4.70
2022-08-28T03:05:32.776Z,9.20
2022-08-28T03:08:00.253Z,5.40
2022-08-28T03:10:28.706Z,6.20
2022-08-28T03:12:56.358Z,5.40
2022-08-28T03:15:23.881Z,6.30
2022-08-28T03:17:51.183Z,5.33
2022-08-28T03:20:19.059Z,6.00
2022-08-28T03:23:04.954Z,6.07
2022-08-28T03:25:32.640Z,5.70
2022-08-28T03:27:59.888Z,5.60
2022-08-28T03:30:27.297Z,5.90
2022-08-28T03:32:54.653Z,5.20
2022-08-28T03:35:22.268Z,4.70
2022-08-28T03:37:49.917Z,5.43
2022-08-28T03:40:17.310Z,5.23
2022-08-28T03:42:51.303Z,5.13
2022-08-28T03:45:21.740Z,5.90
2022-08-28T03:47:49.097Z,5.93
2022-08-28T03:50:18.640Z,6.33
2022-08-28T03:52:47.507Z,6.63
2022-08-28T03:55:14.912Z,6.37
2022-08-28T03:57:42.300Z,7.20
2022-08-28T04:00:13.233Z,5.77
2022-08-28T04:02:45.044Z,5.57
2022-08-28T04:05:13.974Z,5.50
2022-08-28T04:07:41.308Z,5.83
2022-08-28T04:10:09.237Z,7.87
2022-08-28T04:12:37.436Z,5.73
2022-08-28T04:15:07.083Z,5.50
2022-08-28T04:17:37.128Z,5.80
2022-08-28T04:20:05.227Z,6.07
2022-08-28T04:22:33.095Z,5.73
2022-08-28T04:25:01.066Z,7.37
2022-08-28T04:27:28.581Z,5.70
2022-08-28T04:29:55.846Z,7.27
2022-08-28T04:32:23.855Z,7.70
2022-08-28T04:34:51.767Z,6.33
2022-08-28T04:37:19.686Z,6.50
2022-08-28T04:39:47.020Z,6.20
2022-08-28T04:42:14.622Z,6.20
2022-08-28T04:44:42.276Z,5.83
2022-08-28T04:47:09.646Z,5.67
2022-08-28T04:49:37.091Z,6.87
2022-08-28T04:52:05.028Z,5.77
2022-08-28T04:54:34.515Z,5.30
2022-08-28T04:57:03.191Z,6.03
2022-08-28T04:59:34.272Z,6.27
2022-08-28T05:02:01.791Z,6.90
2022-08-28T05:04:29.411Z,6.00
2022-08-28T05:06:56.738Z,6.87
2022-08-28T05:09:24.348Z,6.03
2022-08-28T05:12:16.053Z,6.57
2022-08-28T05:14:44.134Z,5.00
2022-08-28T05:17:14.018Z,6.57
2022-08-28T05:19:41.567Z,5.30
2022-08-28T05:22:11.908Z,5.43
2022-08-28T05:24:40.151Z,6.07
2022-08-28T05:27:08.663Z,5.53
2022-08-28T05:29:36.379Z,7.63
2022-08-28T05:32:04.695Z,5.10
2022-08-28T05:34:32.025Z,5.53
2022-08-28T05:36:59.435Z,5.87
2022-08-28T05:39:26.675Z,5.50
2022-08-28T05:41:53.939Z,6.37
2022-08-28T05:44:21.699Z,5.70
2022-08-28T05:46:49.856Z,5.00
2022-08-28T05:49:19.455Z,5.57
2022-08-28T05:51:47.818Z,6.83
2022-08-28T05:54:15.866Z,4.90
2022-08-28T05:56:45.286Z,5.07
2022-08-28T05:59:13.718Z,5.20
2022-08-28T06:01:44.305Z,4.57
2022-08-28T06:04:15.217Z,4.70
2022-08-28T06:06:43.729Z,5.20
2022-08-28T06:09:17.699Z,4.60
2022-08-28T06:11:46.171Z,5.60
2022-08-28T06:14:18.018Z,5.20
2022-08-28T06:16:52.091Z,5.60
2022-08-28T06:19:21.679Z,5.27
2022-08-28T06:21:53.275Z,4.73
2022-08-28T06:24:20.664Z,6.10
2022-08-28T06:26:47.915Z,4.47
2022-08-28T06:29:21.124Z,5.47
2022-08-28T06:31:58.783Z,5.13
2022-08-28T06:34:26.984Z,4.97
2022-08-28T06:36:54.570Z,7.20
2022-08-28T06:39:23.100Z,5.70
2022-08-28T06:41:50.808Z,6.60
2022-08-28T06:44:20.164Z,5.43
2022-08-28T06:46:49.956Z,5.20
2022-08-28T06:49:17.237Z,6.47
2022-08-28T06:51:44.631Z,5.30
2022-08-28T06:54:12.128Z,5.33
2022-08-28T06:56:39.649Z,5.23
2022-08-28T06:59:06.997Z,5.27
2022-08-28T07:01:36.545Z,4.60
2022-08-28T07:04:08.927Z,5.40
2022-08-28T07:06:41.345Z,5.33
2022-08-28T07:09:13.308Z,5.00
2022-08-28T07:11:43.666Z,6.37
2022-08-28T07:14:11.111Z,5.10
2022-08-28T07:16:39.514Z,4.70
2022-08-28T07:19:10.567Z,5.20
2022-08-28T07:21:43.371Z,7.57
2022-08-28T07:24:13.274Z,5.23
2022-08-28T07:26:41.543Z,5.13
2022-08-28T07:29:10.080Z,6.03
2022-08-28T07:31:46.007Z,5.13
2022-08-28T07:34:14.229Z,6.33
2022-08-28T07:36:42.523Z,5.30
2022-08-28T07:39:10.884Z,5.67
2022-08-28T07:41:40.322Z,5.37
2022-08-28T07:44:28.245Z,5.50
2022-08-28T07:46:58.004Z,6.77
2022-08-28T07:49:25.906Z,6.17
2022-08-28T07:51:54.593Z,5.90
2022-08-28T07:54:23.489Z,6.67
2022-08-28T07:56:51.331Z,5.90
2022-08-28T07:59:20.203Z,6.53
2022-08-28T08:01:51.427Z,6.90
2022-08-28T08:04:20.042Z,6.33
2022-08-28T08:06:47.526Z,7.90
2022-08-28T08:09:16.958Z,7.20
2022-08-28T08:11:44.608Z,7.17
2022-08-28T08:14:12.857Z,8.40
2022-08-28T08:16:43.422Z,7.50
2022-08-28T08:19:15.061Z,8.07
2022-08-28T08:21:45.176Z,8.03
2022-08-28T08:24:21.202Z,8.37
2022-08-28T08:26:56.522Z,8.63
2022-08-28T08:29:31.356Z,8.70
2022-08-28T08:32:05.576Z,9.40
2022-08-28T08:34:36.788Z,9.23
2022-08-28T08:37:05.702Z,10.03
2022-08-28T08:39:35.008Z,9.13
2022-08-28T08:42:06.938Z,9.73
2022-08-28T08:44:36.415Z,10.33
2022-08-28T08:47:16.003Z,9.53
2022-08-28T08:49:50.325Z,10.70
2022-08-28T08:52:39.907Z,10.80
2022-08-28T08:55:27.336Z,10.43
2022-08-28T08:58:10.812Z,12.47
2022-08-28T09:00:52.323Z,11.40
2022-08-28T09:03:27.485Z,12.00
2022-08-28T09:06:04.089Z,10.93
2022-08-28T09:08:39.951Z,10.10
2022-08-28T09:11:33.301Z,11.27
2022-08-28T09:14:31.688Z,9.93
2022-08-28T09:17:00.915Z,9.27
2022-08-28T09:19:29.175Z,9.47
2022-08-28T09:21:57.607Z,9.53
2022-08-28T09:24:32.203Z,10.13
2022-08-28T09:27:04.739Z,10.17
2022-08-28T09:29:38.503Z,9.43
2022-08-28T09:32:34.113Z,8.73
2022-08-28T09:35:33.006Z,7.60
2022-08-28T09:38:21.200Z,6.93
2022-08-28T09:41:07.599Z,6.37
2022-08-28T09:43:36.741Z,7.90
2022-08-28T09:46:07.820Z,6.67
2022-08-28T09:48:41.138Z,6.23
2022-08-28T09:51:11.943Z,5.83
2022-08-28T09:53:56.651Z,5.90
2022-08-28T09:56:34.689Z,6.33
2022-08-28T09:59:19.994Z,5.83
2022-08-28T10:01:51.533Z,5.77
2022-08-28T10:04:38.057Z,5.07
2022-08-28T10:07:08.409Z,4.70
2022-08-28T10:09:57.263Z,6.40
2022-08-28T10:12:59.612Z,5.70
2022-08-28T10:15:43.422Z,5.70
2022-08-28T10:18:19.987Z,6.63
2022-08-28T10:20:56.280Z,5.60
2022-08-28T10:23:29.009Z,5.53
2022-08-28T10:26:17.951Z,5.40
2022-08-28T10:29:16.286Z,5.10
2022-08-28T10:31:46.432Z,5.50
2022-08-28T10:34:17.004Z,4.80
2022-08-28T10:36:53.088Z,5.43
2022-08-28T10:39:31.632Z,5.30
2022-08-28T10:42:03.119Z,5.07
2022-08-28T10:44:44.024Z,4.10
2022-08-28T10:47:13.683Z,3.77
2022-08-28T10:49:44.410Z,3.50
2022-08-28T10:52:45.857Z,3.23
2022-08-28T10:55:47.477Z,3.20
2022-08-28T10:58:21.161Z,2.50
2022-08-28T11:01:06.074Z,2.50
2022-08-28T11:03:41.960Z,1.60
2022-08-28T11:06:17.622Z,1.50
2022-08-28T11:08:52.881Z,1.70
2022-08-28T11:11:45.011Z,1.97
2022-08-28T11:14:35.635Z,1.70
2022-08-28T11:17:25.381Z,1.93
2022-08-28T11:20:20.594Z,1.93
2022-08-28T11:23:09.156Z,1.87
2022-08-28T11:25:45.617Z,1.70
2022-08-28T11:28:27.196Z,5.53
2022-08-28T11:31:03.973Z,2.00
2022-08-28T11:33:36.680Z,1.80
2022-08-28T11:36:10.579Z,1.73
2022-08-28T11:38:43.657Z,2.10
2022-08-28T11:41:22.475Z,2.40
2022-08-28T11:44:11.553Z,2.50
2022-08-28T11:46:44.592Z,2.40
2022-08-28T11:49:25.436Z,2.50
2022-08-28T11:51:55.629Z,2.70
2022-08-28T11:54:41.747Z,2.87
2022-08-28T11:57:12.733Z,2.80
2022-08-28T12:00:10.769Z,3.17
2022-08-28T12:02:47.642Z,3.20
2022-08-28T12:05:15.035Z,3.23
2022-08-28T12:07:48.502Z,3.17
2022-08-28T12:10:27.517Z,3.30
2022-08-28T12:12:58.034Z,3.70
2022-08-28T12:15:28.465Z,3.50
2022-08-28T12:18:02.239Z,3.73
2022-08-28T12:20:36.026Z,3.90
2022-08-28T12:23:32.356Z,3.93
2022-08-28T12:26:19.140Z,3.23
2022-08-28T12:28:54.806Z,4.07
2022-08-28T12:31:59.140Z,3.50
2022-08-28T12:34:43.624Z,4.00
2022-08-28T12:37:52.131Z,4.47
2022-08-28T12:40:41.714Z,4.10
2022-08-28T12:43:15.583Z,4.93
2022-08-28T12:45:50.664Z,4.83
2022-08-28T12:48:26.454Z,5.40
2022-08-28T12:51:11.854Z,3.90
2022-08-28T12:53:51.499Z,4.37
2022-08-28T12:56:21.949Z,4.20
2022-08-28T12:58:50.168Z,4.00
2022-08-28T13:01:32.793Z,4.13
2022-08-28T13:04:04.752Z,4.37
2022-08-28T13:06:36.542Z,4.70
2022-08-28T13:09:07.248Z,4.23
2022-08-28T13:11:38.833Z,4.60
2022-08-28T13:14:08.016Z,4.40
2022-08-28T13:16:46.671Z,4.00
2022-08-28T13:19:28.528Z,4.13
2022-08-28T13:22:00.745Z,3.57
2022-08-28T13:24:43.513Z,3.57
2022-08-28T13:27:18.979Z,3.00
2022-08-28T13:30:04.638Z,3.90
2022-08-28T13:32:39.009Z,3.33
2022-08-28T13:35:09.401Z,3.67
2022-08-28T13:37:41.367Z,3.50
2022-08-28T13:40:19.774Z,4.17
2022-08-28T13:43:03.413Z,3.80
2022-08-28T13:45:35.236Z,3.83
2022-08-28T13:48:11.185Z,3.87
2022-08-28T13:50:41.695Z,4.10
2022-08-28T13:53:09.256Z,3.80
2022-08-28T13:55:36.648Z,3.60
2022-08-28T13:58:04.056Z,3.90
2022-08-28T14:00:35.921Z,3.80
2022-08-28T14:03:21.870Z,4.23
2022-08-28T14:05:49.307Z,4.40
2022-08-28T14:08:17.215Z,4.50
2022-08-28T14:10:44.478Z,4.57
2022-08-28T14:13:12.200Z,4.83
2022-08-28T14:15:40.068Z,4.47
2022-08-28T14:20:53.023Z,5.10
2022-08-28T14:23:20.338Z,4.90
2022-08-28T14:25:49.184Z,5.13
2022-08-28T14:28:17.692Z,5.07
2022-08-28T14:30:48.022Z,4.60
2022-08-28T14:33:18.787Z,5.03
2022-08-28T14:35:49.276Z,4.40
2022-08-28T14:38:16.761Z,5.20
2022-08-28T14:40:44.606Z,4.40
2022-08-28T14:43:13.651Z,4.60
2022-08-28T14:45:45.128Z,4.57
2022-08-28T14:48:14.289Z,4.50
2022-08-28T14:50:44.626Z,4.90
2022-08-28T14:53:13.874Z,4.20
2022-08-28T14:55:46.686Z,4.40
2022-08-28T14:58:15.215Z,4.63
2022-08-28T15:00:45.487Z,4.47
2022-08-28T15:03:14.053Z,4.20
2022-08-28T15:05:42.184Z,4.73
2022-08-28T15:08:11.993Z,4.80
2022-08-28T15:10:41.971Z,4.10
2022-08-28T15:13:10.455Z,4.73
2022-08-28T15:15:39.683Z,4.70
2022-08-28T15:18:11.333Z,5.33
2022-08-28T15:20:46.290Z,5.53
2022-08-28T15:23:15.004Z,5.37
2022-08-28T15:25:42.981Z,5.60
2022-08-28T15:28:10.546Z,5.30
2022-08-28T15:30:39.484Z,5.07
2022-08-28T15:33:07.406Z,5.63
2022-08-28T15:35:37.033Z,4.93
2022-08-28T15:38:05.316Z,4.80
2022-08-28T15:40:51.556Z,5.70
2022-08-28T15:43:19.616Z,5.10
2022-08-28T15:45:47.250Z,4.80
2022-08-28T15:48:14.660Z,4.90
2022-08-28T15:50:42.307Z,4.77
2022-08-28T15:53:10.105Z,5.57
2022-08-28T15:55:37.506Z,5.60
2022-08-28T15:58:13.700Z,5.90
2022-08-28T16:00:42.778Z,5.77
2022-08-28T16:03:10.443Z,6.13
2022-08-28T16:05:39.700Z,5.97
2022-08-28T16:08:10.449Z,6.20
2022-08-28T16:10:38.188Z,6.53
2022-08-28T16:13:06.633Z,6.43
2022-08-28T16:15:34.984Z,6.30
2022-08-28T16:18:02.625Z,6.40
2022-08-28T16:20:29.964Z,6.53
2022-08-28T16:22:57.212Z,6.57
2022-08-28T16:25:24.620Z,6.80
2022-08-28T16:27:52.119Z,6.87
2022-08-28T16:30:20.518Z,6.87
2022-08-28T16:32:51.975Z,6.73
2022-08-28T16:35:21.849Z,6.17
2022-08-28T16:37:49.716Z,6.53
2022-08-28T16:40:17.118Z,5.77
2022-08-28T16:42:51.883Z,5.43
2022-08-28T16:45:19.626Z,5.93
2022-08-28T16:47:47.295Z,5.33
2022-08-28T16:50:15.795Z,4.90
2022-08-28T16:52:43.603Z,3.83
2022-08-28T16:55:12.554Z,3.20
2022-08-28T16:57:40.192Z,3.73
2022-08-28T17:00:12.302Z,2.63
2022-08-28T17:02:42.265Z,2.87
2022-08-28T17:05:12.029Z,2.70
2022-08-28T17:07:39.848Z,2.80
2022-08-28T17:10:09.176Z,2.87
2022-08-28T17:12:36.504Z,3.10
2022-08-28T17:15:04.940Z,2.57
2022-08-28T17:17:32.952Z,2.60
2022-08-28T17:20:00.518Z,2.67
2022-08-28T17:22:32.743Z,2.10
2022-08-28T17:25:03.663Z,2.20
2022-08-28T17:27:32.327Z,2.50
2022-08-28T17:30:01.393Z,2.07
2022-08-28T17:32:29.032Z,1.50
2022-08-28T17:34:56.341Z,1.90
2022-08-28T17:37:24.945Z,2.00
2022-08-28T17:39:53.478Z,1.93
2022-08-28T17:42:20.971Z,2.17
2022-08-28T17:44:48.276Z,1.93
2022-08-28T17:47:15.855Z,1.73
2022-08-28T17:49:44.807Z,1.90
2022-08-28T17:52:12.172Z,2.07
2022-08-28T17:54:39.535Z,1.80
2022-08-28T17:57:06.791Z,2.10
2022-08-28T17:59:34.308Z,1.67
2022-08-28T18:02:02.399Z,1.80
2022-08-28T18:04:29.959Z,1.87
2022-08-28T18:06:58.401Z,2.93
2022-08-28T18:09:25.824Z,2.20
2022-08-28T18:11:53.379Z,2.00
2022-08-28T18:14:20.955Z,3.20
2022-08-28T18:16:48.545Z,2.00
2022-08-28T18:19:16.483Z,2.43
2022-08-28T18:21:43.977Z,2.60
2022-08-28T18:24:13.015Z,3.00
2022-08-28T18:26:41.479Z,2.57
2022-08-28T18:29:08.784Z,2.37
2022-08-28T18:31:36.350Z,2.70
2022-08-28T18:34:04.175Z,2.83
2022-08-28T18:36:31.491Z,3.00
2022-08-28T18:38:58.897Z,3.00
2022-08-28T18:41:43.979Z,2.90
2022-08-28T18:44:13.961Z,2.50
2022-08-28T18:46:43.232Z,2.70
2022-08-28T18:49:11.512Z,2.93
2022-08-28T18:51:40.820Z,3.27
2022-08-28T18:54:08.157Z,2.87
2022-08-28T18:56:36.202Z,2.83
2022-08-28T18:59:06.483Z,3.10
2022-08-28T19:01:34.504Z,3.10
2022-08-28T19:04:02.419Z,3.23
2022-08-28T19:06:29.778Z,3.10
2022-08-28T19:08:57.264Z,3.10
2022-08-28T19:11:24.748Z,3.80
2022-08-28T19:13:52.556Z,3.83
2022-08-28T19:16:20.640Z,5.00
2022-08-28T19:18:51.478Z,3.33
2022-08-28T19:21:21.178Z,2.87
2022-08-28T19:23:56.237Z,3.20
2022-08-28T19:26:27.412Z,3.43
2022-08-28T19:28:55.475Z,3.03
2022-08-28T19:31:24.209Z,3.30
2022-08-28T19:33:51.694Z,3.00
2022-08-28T19:36:19.813Z,3.00
2022-08-28T19:38:47.447Z,3.30
2022-08-28T19:41:14.848Z,2.83
2022-08-28T19:43:44.375Z,3.30
2022-08-28T19:46:18.395Z,3.60
2022-08-28T19:48:52.487Z,3.37
2022-08-28T19:51:23.352Z,3.63
2022-08-28T19:53:57.907Z,3.20
2022-08-28T19:56:32.294Z,3.20
2022-08-28T19:59:02.580Z,3.03
2022-08-28T20:01:33.530Z,3.23
2022-08-28T20:04:01.256Z,3.40
2022-08-28T20:06:31.538Z,3.87
2022-08-28T20:09:00.590Z,3.97
2022-08-28T20:11:30.566Z,3.70
2022-08-28T20:14:03.800Z,3.33
2022-08-28T20:16:34.703Z,3.57
2022-08-28T20:19:03.999Z,3.50
2022-08-28T20:21:37.347Z,4.73
2022-08-28T20:24:07.990Z,4.07
2022-08-28T20:26:36.652Z,4.03
2022-08-28T20:29:06.288Z,3.83
2022-08-28T20:31:34.935Z,5.83
2022-08-28T20:34:02.394Z,3.70
2022-08-28T20:36:30.029Z,3.47
2022-08-28T20:38:57.345Z,4.10
2022-08-28T20:41:24.955Z,4.17
2022-08-28T20:43:52.462Z,4.17
2022-08-28T20:46:20.274Z,4.70
2022-08-28T20:48:48.116Z,4.90
2022-08-28T20:51:15.401Z,4.13
2022-08-28T20:53:42.843Z,3.87
2022-08-28T20:56:10.807Z,4.20
2022-08-28T20:58:38.769Z,4.27
2022-08-28T21:01:06.381Z,4.77
2022-08-28T21:03:33.928Z,4.50
2022-08-28T21:06:01.616Z,4.47
2022-08-28T21:08:29.111Z,4.43
2022-08-28T21:10:56.837Z,4.33
2022-08-28T21:13:24.127Z,4.07
2022-08-28T21:15:51.423Z,5.03
2022-08-28T21:18:18.674Z,6.00
2022-08-28T21:20:46.494Z,5.30
2022-08-28T21:23:14.097Z,4.70
2022-08-28T21:25:42.174Z,4.40
2022-08-28T21:28:09.665Z,4.67
2022-08-28T21:30:37.485Z,5.03
2022-08-28T21:33:05.387Z,4.57
2022-08-28T21:35:32.966Z,6.83
2022-08-28T21:38:00.373Z,4.77
2022-08-28T21:40:27.833Z,4.47
2022-08-28T21:42:55.181Z,4.93
2022-08-28T21:45:22.614Z,4.37
2022-08-28T21:47:50.022Z,4.60
2022-08-28T21:50:17.573Z,4.43
2022-08-28T21:52:45.651Z,4.80
2022-08-28T21:55:15.161Z,5.93
2022-08-28T21:57:42.941Z,5.80
2022-08-28T22:00:19.251Z,5.37
2022-08-28T22:02:47.421Z,6.53
2022-08-28T22:05:15.311Z,5.10
2022-08-28T22:07:44.164Z,5.43
2022-08-28T22:10:12.090Z,5.20
2022-08-28T22:12:39.567Z,5.63
2022-08-28T22:15:07.261Z,5.50
2022-08-28T22:17:34.688Z,5.30
2022-08-28T22:20:02.579Z,5.90
2022-08-28T22:22:48.599Z,5.50
2022-08-28T22:25:15.891Z,6.17
2022-08-28T22:27:43.156Z,6.00
2022-08-28T22:30:10.999Z,5.47
2022-08-28T22:32:38.385Z,5.60
2022-08-28T22:35:06.474Z,5.77
2022-08-28T22:37:36.161Z,5.63
2022-08-28T22:40:09.502Z,5.60
2022-08-28T22:42:41.259Z,5.07
2022-08-28T22:45:09.659Z,4.90
2022-08-28T22:47:36.940Z,6.17
2022-08-28T22:50:05.309Z,5.60
2022-08-28T22:52:32.943Z,5.73
2022-08-28T22:55:00.384Z,5.40
2022-08-28T22:57:27.951Z,5.50
2022-08-28T22:59:55.550Z,5.80
2022-08-28T23:02:22.839Z,7.40
2022-08-28T23:04:54.909Z,5.60
2022-08-28T23:07:22.320Z,6.47
2022-08-28T23:09:49.587Z,6.57
2022-08-28T23:12:17.305Z,6.60
2022-08-28T23:14:48.367Z,5.20
2022-08-28T23:17:17.590Z,5.80
2022-08-28T23:19:47.863Z,7.20
2022-08-28T23:22:16.157Z,7.50
2022-08-28T23:24:43.831Z,5.73
2022-08-28T23:27:34.570Z,6.33
2022-08-28T23:29:58.639Z,6.60
2022-08-28T23:32:26.451Z,6.17
2022-08-28T23:34:53.845Z,6.37
2022-08-28T23:37:21.290Z,7.97
2022-08-28T23:39:50.178Z,5.93
2022-08-28T23:42:18.344Z,6.33
2022-08-28T23:44:47.259Z,6.33
2022-08-28T23:47:14.810Z,6.23
2022-08-28T23:49:42.709Z,6.60
2022-08-28T23:52:10.350Z,8.67
2022-08-28T23:54:39.839Z,6.70
2022-08-28T23:57:08.881Z,6.20
2022-08-28T23:59:38.773Z,6.60
